Wednesday, March 21, 2018, 8:38 PM EDT
Back to Local

KPIT, Greater Pittsburgh International

Location: Coraopolis, PA, United States Lat: 40.483
Local Time: 8:38 PM EDT ( 0:38 GMT) Lon: -80.233
Time Zone: US/Eastern Elev: 1204 ft

Show me the last for .
Show Decoded

2018-03-21 20:22 METAR KPIT 220022Z 32012KT 10SM SCT030 BKN041 OVC100 00/M05 A2990 RMK AO2
                 T00001050 =
2018-03-21 19:51 METAR KPIT 212351Z 32013KT 10SM FEW019 BKN028 OVC035 01/M04 A2988 RMK AO2 SNE49
                 SLP139 P0000 60000 T00061044 10006 21011 51026 =
2018-03-21 19:21 METAR KPIT 212321Z 31007KT 6SM -SN OVC017 M01/M03 A2987 RMK AO2 VIS E-SE 2 P0000
                 T10061033 =
2018-03-21 18:51 METAR KPIT 212251Z 34008KT 1SM R28R/P6000FT -SN BR FEW009 OVC015 M01/M03 A2987
                 RMK AO2 SLP135 P0000 T10061028 =
2018-03-21 18:26 METAR KPIT 212226Z 35014KT 1SM R28R/4500VP6000FT -SN FEW009 BKN014 OVC019
                 M01/M03 A2986 RMK AO2 P0000 T10061033 =
2018-03-21 18:13 METAR KPIT 212213Z 35010KT 2SM -SN SCT017 BKN022 OVC030 00/M03 A2984 RMK AO2
                 P0000 T00001028 =
2018-03-21 17:51 METAR KPIT 212151Z 34005KT 4SM -SN FEW028 BKN036 OVC045 00/M03 A2983 RMK AO2
                 SLP122 P0000 T00001028 =
2018-03-21 16:51 METAR KPIT 212051Z 36007KT 5SM -SN BR SCT012 BKN031 OVC048 M01/M03 A2980 RMK AO2
                 SLP113 P0000 60000 T10111028 53018 =
2018-03-21 16:29 METAR KPIT 212029Z 36009KT 4SM -SN BR SCT010 BKN021 OVC032 M01/M02 A2980 RMK AO2
                 P0000 T10061022 =
2018-03-21 15:51 METAR KPIT 211951Z 36011KT 1SM R28R/4000V6000FT -SN BR BKN009 OVC016 M01/M03
                 A2978 RMK AO2 SLP106 P0000 T10111028 =
2018-03-21 14:51 METAR KPIT 211851Z 36012KT 1SM R28R/2800V4000FT -SN BR OVC008 M01/M03 A2975 RMK
                 AO2 SLP097 P0000 T10111028 =
2018-03-21 13:51 METAR KPIT 211751Z 35014KT 1SM R28R/3000V5000FT -SN BR BKN007 BKN012 OVC021
                 M01/M02 A2975 RMK AO2 SLP094 P0001 60025 T10111022 11006 21022 51013 =
2018-03-21 12:58 METAR KPIT 211658Z 36013KT 1/2SM R28R/2000V2600FT SN VV005 M01/M02 A2974 RMK AO2
                 P0000 T10111022 =
2018-03-21 12:51 METAR KPIT 211651Z 36011KT 1/2SM R28R/2000V2200FT SN VV006 M01/M03 A2973 RMK AO2
                 SLP089 P0003 T10111028 =
2018-03-21 12:36 METAR KPIT 211636Z 01010KT 1/2SM R28R/2200V3000FT SN VV006 M01/M03 A2973 RMK AO2
                 P0002 T10111028 =
2018-03-21 11:51 METAR KPIT 211551Z 04008KT 3/4SM R28R/2400V4000FT -SN BR SCT005 OVC008 M01/M03
                 A2972 RMK AO2 SLP085 P0004 T10111028 =
2018-03-21 11:41 METAR KPIT 211541Z 02008KT 3/4SM R28R/2600V6000FT -SN BR SCT005 OVC009 M01/M03
                 A2972 RMK AO2 P0004 T10111028 =
2018-03-21 10:51 METAR KPIT 211451Z 04006KT 1/2SM R28R/2800V4000FT SN VV009 M01/M03 A2971 RMK AO2
                 SLP080 P0004 60017 T10111028 53014 =
2018-03-21 10:19 METAR KPIT 211419Z 05006KT 1/2SM R28R/2800V3500FT SN VV009 M02/M03 A2970 RMK AO2
                 P0002 T10171028 =
2018-03-21 09:51 METAR KPIT 211351Z 04009KT 3/4SM R28R/3000V6000FT -SN BR FEW007 BKN011 OVC018
                 M02/M03 A2969 RMK AO2 SLP074 P0006 T10171028 =
2018-03-21 09:44 METAR KPIT 211344Z 05008KT 3/4SM R28R/2800V4500FT -SN BR FEW007 BKN011 OVC018
                 M02/M03 A2969 RMK AO2 P0005 T10171028 =
2018-03-21 08:51 METAR KPIT 211251Z 06007KT 1/2SM R28R/2600V3000FT SN VV008 M02/M03 A2968 RMK AO2
                 SLP070 P0007 T10221033 =
2018-03-21 07:51 METAR KPIT 211151Z 06007KT 1/2SM R28R/3000V3500FT SN VV007 M02/M03 A2967 RMK AO2
                 SLP065 P0006 60019 70039 T10221033 11017 21022 53001 =
2018-03-21 07:34 METAR KPIT 211134Z 06008KT 1/2SM R28R/3500V5000FT SN VV005 M02/M03 A2966 RMK AO2
                 P0004 T10221033 =
2018-03-21 07:14 METAR KPIT 211114Z 06007KT 1SM R28R/6000VP6000FT -SN BR VV008 M02/M03 A2966 RMK
                 AO2 P0002 T10221028 =
2018-03-21 06:51 METAR KPIT 211051Z 06005KT 1 1/2SM -SN BR VV013 M02/M03 A2966 RMK AO2 SLP062
                 P0004 T10221028 =
2018-03-21 05:51 METAR KPIT 210951Z 09005KT 1 1/2SM -SN BR FEW008 OVC013 M02/M03 A2966 RMK AO2
                 SLP063 P0004 T10221028 =
2018-03-21 04:51 METAR KPIT 210851Z 09006KT 1SM R28R/P6000FT -SN BR VV012 M02/M03 A2966 RMK AO2
                 SLP064 P0003 60005 T10221028 56007 =
2018-03-21 04:29 METAR KPIT 210829Z 09005KT 1SM R28R/P6000FT -SN BR VV012 M02/M03 A2966 RMK AO2
                 P0002 T10221028 =
2018-03-21 03:51 METAR KPIT 210751Z 08004KT 2SM -SN BR OVC019 M02/M03 A2966 RMK AO2 SLP064 P0001
                 T10221033 =
2018-03-21 03:23 METAR KPIT 210723Z 07005KT 2 1/2SM -SN BR OVC024 M02/M03 A2967 RMK AO2 P0001
                 T10221033 =
2018-03-21 02:51 METAR KPIT 210651Z 07004KT 3SM -SN BR OVC031 M02/M03 A2968 RMK AO2 SLP069 P0001
                 T10221033 =
2018-03-21 02:07 METAR KPIT 210607Z 08006KT 3SM -SN BR OVC026 M02/M03 A2968 RMK AO2 P0000
                 T10221033 =
2018-03-21 01:51 METAR KPIT 210551Z 08008KT 2SM -SN BR BKN026 OVC033 M02/M03 A2968 RMK AO2 SLP071
                 P0001 60005 T10171033 11006 21022 56003 =
2018-03-21 00:51 METAR KPIT 210451Z 07009KT 2SM -SN BR FEW007 OVC015 M02/M03 A2969 RMK AO2 SLP071
                 P0002 T10171028 400501017 =
2018-03-21 00:11 METAR KPIT 210411Z 08010KT 2SM -SN BR SCT009 BKN019 OVC030 M02/M03 A2969 RMK AO2
                 P0001 T10171028 =
2018-03-20 23:51 METAR KPIT 210351Z 06015G19KT 3SM -SN BR FEW012 BKN025 OVC035 M02/M03 A2968 RMK
                 AO2 SLP071 P0000 T10171033 =
2018-03-20 22:51 METAR KPIT 210251Z 07011KT 9SM -SN FEW015 BKN033 OVC045 M01/M03 A2969 RMK AO2
                 SLP073 P0000 60002 T10111033 53002 =
2018-03-20 22:24 METAR KPIT 210224Z 08010G18KT 4SM -SN BR FEW013 OVC033 M01/M03 A2969 RMK AO2
                 P0000 T10111033 =
2018-03-20 21:51 METAR KPIT 210151Z 07013G20KT 3SM -SN BR FEW009 OVC021 M01/M03 A2969 RMK AO2
                 SLP070 P0001 T10111028 =
2018-03-20 20:51 METAR KPIT 210051Z 07013KT 3SM -SN BR SCT009 OVC024 M01/M03 A2969 RMK AO2 SLP070
                 P0001 T10111028 =

Support USWX by starting your Amazon purchase here.